Du har inga inställningar för hoppväder.nu

Hoppväder.nu

Senast uppdaterat 00:22

UTC-tid

2019-06-25 kl. 22:22


Sol och måne

Solen går upp 3:48 och går ner 22:51 (beräknade cirkatider)
Nästa fullmåne blir om 20 dagar (2019-07-16)

METAR

ESSV (Visby)
(32 minuter sedan)
ESSV 252150Z AUTO 14007KT 9999 NCD 17/13 Q1023=















TAF

ESSV (Visby)
(292 minuter sedan)
ESSV 251730Z 2518/2522 VRB03KT CAVOK=





Kodnycklar till TAF och METAR






LHP

(Visby är område H2a i Sydöstra delen)

Prognos är inte uppdaterad




Spotting

Hur fungerar spotthjälpen och Vindkartan?

Markvind är ca 0 m/s.



Vindkartan

Senast uppdaterad 00:22




All data kommer från LFV.se